createdAt,value
2023-02-09T00:00:13.292Z,61.63
2023-02-09T00:05:04.083Z,61.51
2023-02-09T00:09:55.334Z,61.35
2023-02-09T00:14:49.490Z,61.66
2023-02-09T00:19:52.503Z,61.88
2023-02-09T00:24:46.626Z,62.08
2023-02-09T00:29:41.191Z,62.16
2023-02-09T00:34:34.004Z,62.33
2023-02-09T00:39:28.468Z,62.76
2023-02-09T00:44:22.136Z,62.62
2023-02-09T00:49:19.863Z,62.88
2023-02-09T00:54:11.103Z,63.15
2023-02-09T00:59:07.175Z,63.25
2023-02-09T01:04:00.906Z,63.82
2023-02-09T01:08:54.113Z,63.21
2023-02-09T01:13:48.079Z,62.92
2023-02-09T01:18:50.383Z,62.84
2023-02-09T01:23:43.023Z,62.75
2023-02-09T01:28:34.224Z,62.79
2023-02-09T01:33:27.373Z,63.16
2023-02-09T01:38:24.389Z,62.53
2023-02-09T01:43:15.101Z,62.04
2023-02-09T01:48:07.004Z,62.19
2023-02-09T01:52:58.902Z,61.42
2023-02-09T01:58:00.114Z,61.53
2023-02-09T02:02:57.771Z,61.51
2023-02-09T02:07:59.264Z,61.86
2023-02-09T02:12:56.517Z,62.45
2023-02-09T02:18:17.459Z,62.95
2023-02-09T02:23:25.202Z,62.39
2023-02-09T02:28:37.662Z,62.48
2023-02-09T02:33:42.738Z,63.24
2023-02-09T02:38:43.518Z,63.45
2023-02-09T02:43:43.951Z,63.32
2023-02-09T02:48:46.507Z,63.26
2023-02-09T02:53:46.156Z,63.53
2023-02-09T02:58:45.545Z,63.51
2023-02-09T03:03:43.268Z,63.56
2023-02-09T03:08:49.442Z,63.91
2023-02-09T03:13:51.615Z,64.07
2023-02-09T03:19:24.047Z,64.11
2023-02-09T03:24:41.096Z,63.59
2023-02-09T03:29:38.947Z,63.42
2023-02-09T03:34:34.580Z,62.69
2023-02-09T03:39:27.576Z,62.48
2023-02-09T03:44:34.953Z,62.92
2023-02-09T03:49:26.920Z,62.66
2023-02-09T03:54:21.316Z,62.70
2023-02-09T03:59:13.248Z,62.25
2023-02-09T04:04:09.398Z,61.26
2023-02-09T04:09:03.662Z,60.85
2023-02-09T04:14:01.894Z,60.36
2023-02-09T04:18:57.584Z,59.76
2023-02-09T04:23:49.311Z,59.41
2023-02-09T04:28:41.106Z,59.07
2023-02-09T04:33:38.304Z,58.94
2023-02-09T04:38:30.875Z,58.89
2023-02-09T04:43:22.217Z,58.90
2023-02-09T04:48:18.899Z,58.95
2023-02-09T04:53:13.293Z,59.43
2023-02-09T04:58:17.263Z,59.13
2023-02-09T05:03:15.100Z,58.88
2023-02-09T05:08:07.074Z,59.22
2023-02-09T05:13:01.025Z,59.65
2023-02-09T05:17:52.630Z,60.18
2023-02-09T05:22:45.831Z,60.07
2023-02-09T05:27:37.700Z,60.39
2023-02-09T05:32:37.410Z,60.48
2023-02-09T05:37:28.882Z,60.25
2023-02-09T05:42:21.369Z,60.13
2023-02-09T05:47:14.482Z,60.31
2023-02-09T05:52:11.628Z,60.64
2023-02-09T05:57:01.359Z,60.50
2023-02-09T06:01:51.092Z,61.17
2023-02-09T06:06:41.868Z,61.13
2023-02-09T06:11:40.678Z,60.83
2023-02-09T06:16:38.745Z,61.59
2023-02-09T06:21:35.204Z,61.78
2023-02-09T06:26:29.550Z,62.19
2023-02-09T06:31:27.096Z,62.06
2023-02-09T06:36:17.969Z,62.58
2023-02-09T06:41:10.435Z,62.64
2023-02-09T06:46:05.259Z,63.21
2023-02-09T06:50:58.620Z,63.57
2023-02-09T06:55:51.700Z,63.51
2023-02-09T07:00:44.381Z,63.55
2023-02-09T07:05:34.730Z,63.58
2023-02-09T07:10:30.795Z,63.75
2023-02-09T07:15:26.586Z,64.05
2023-02-09T07:20:18.843Z,64.17
2023-02-09T07:25:11.664Z,64.31
2023-02-09T07:30:08.179Z,64.51
2023-02-09T07:34:58.509Z,64.59
2023-02-09T07:39:51.591Z,64.93
2023-02-09T07:44:43.613Z,65.05
2023-02-09T07:49:39.642Z,64.39
2023-02-09T07:54:34.275Z,64.08
2023-02-09T07:59:25.522Z,63.24
2023-02-09T08:04:19.467Z,63.24
2023-02-09T08:09:14.667Z,62.56
2023-02-09T08:14:10.215Z,62.90
2023-02-09T08:19:05.978Z,62.32
2023-02-09T08:24:00.150Z,62.44
2023-02-09T08:28:54.589Z,61.90
2023-02-09T08:33:44.784Z,62.10
2023-02-09T08:38:34.567Z,61.75
2023-02-09T08:43:24.894Z,61.69
2023-02-09T08:48:17.686Z,61.76
2023-02-09T08:53:09.899Z,61.56
2023-02-09T08:58:05.883Z,60.94
2023-02-09T09:02:57.484Z,60.54
2023-02-09T09:08:05.423Z,59.98
2023-02-09T09:12:57.697Z,59.66
2023-02-09T09:17:49.729Z,59.29
2023-02-09T09:22:48.365Z,58.61
2023-02-09T09:27:44.137Z,58.35
2023-02-09T09:32:35.174Z,58.43
2023-02-09T09:37:27.493Z,58.96
2023-02-09T09:42:26.851Z,58.32
2023-02-09T09:47:25.119Z,58.50
2023-02-09T09:52:24.292Z,57.67
2023-02-09T09:57:21.743Z,56.85
2023-02-09T10:02:26.802Z,56.03
2023-02-09T10:07:25.550Z,57.24
2023-02-09T10:12:35.657Z,57.19
2023-02-09T10:17:31.738Z,56.97
2023-02-09T10:22:24.276Z,55.52
2023-02-09T10:27:20.327Z,55.61
2023-02-09T10:32:19.441Z,57.39
2023-02-09T10:37:24.558Z,58.32
2023-02-09T10:42:24.894Z,58.12
2023-02-09T10:47:30.782Z,59.17
2023-02-09T10:52:26.033Z,60.35
2023-02-09T10:57:27.282Z,60.56
2023-02-09T11:02:38.536Z,60.69
2023-02-09T11:07:42.061Z,60.92
2023-02-09T11:12:33.050Z,61.02
2023-02-09T11:17:29.475Z,61.62
2023-02-09T11:22:29.517Z,61.52
2023-02-09T11:27:38.924Z,61.11
2023-02-09T11:32:39.957Z,61.44
2023-02-09T11:37:43.160Z,61.41
2023-02-09T11:42:51.856Z,61.39
2023-02-09T11:47:56.184Z,60.97
2023-02-09T11:52:56.135Z,61.15
2023-02-09T11:57:57.912Z,61.15
2023-02-09T12:02:58.263Z,62.02
2023-02-09T12:08:10.977Z,62.87
2023-02-09T12:13:29.421Z,63.55
2023-02-09T12:18:24.334Z,65.37
2023-02-09T12:23:21.735Z,65.04
2023-02-09T12:28:42.826Z,64.92
2023-02-09T12:33:40.739Z,65.55
2023-02-09T12:38:55.940Z,65.71
2023-02-09T12:43:55.643Z,65.60
2023-02-09T12:48:54.312Z,66.19
2023-02-09T12:53:54.472Z,66.67
2023-02-09T12:59:18.557Z,66.74
2023-02-09T13:04:16.606Z,66.70
2023-02-09T13:09:13.407Z,67.34
2023-02-09T13:14:10.165Z,68.06
2023-02-09T13:19:20.877Z,68.04
2023-02-09T13:24:18.860Z,68.79
2023-02-09T13:29:20.253Z,68.83
2023-02-09T13:34:26.407Z,69.21
2023-02-09T13:39:27.304Z,69.21
2023-02-09T13:44:26.345Z,70.16
2023-02-09T13:49:24.313Z,70.98
2023-02-09T13:54:42.944Z,71.72
2023-02-09T13:59:34.259Z,72.28
2023-02-09T14:04:28.914Z,73.28
2023-02-09T14:09:27.343Z,74.08
2023-02-09T14:14:23.998Z,74.56
2023-02-09T14:19:29.502Z,75.21
2023-02-09T14:24:25.872Z,75.92
2023-02-09T14:29:20.532Z,76.32
2023-02-09T14:34:26.641Z,77.03
2023-02-09T14:39:21.636Z,77.67
2023-02-09T14:44:25.257Z,77.73
2023-02-09T14:49:17.455Z,78.09
2023-02-09T14:54:16.753Z,78.27
2023-02-09T14:59:13.756Z,78.90
2023-02-09T15:04:16.054Z,79.18
2023-02-09T15:09:07.551Z,79.54
2023-02-09T15:14:04.042Z,79.60
2023-02-09T15:18:55.539Z,79.86
2023-02-09T15:23:48.051Z,80.21
2023-02-09T15:28:42.052Z,80.39
2023-02-09T15:33:41.627Z,80.30
2023-02-09T15:38:32.815Z,80.66
2023-02-09T15:43:47.710Z,80.89
2023-02-09T15:48:39.040Z,81.10
2023-02-09T15:53:31.232Z,81.98
2023-02-09T15:58:35.346Z,81.80
2023-02-09T16:03:29.530Z,81.85
2023-02-09T16:08:25.564Z,82.25
2023-02-09T16:13:17.838Z,82.42
2023-02-09T16:18:14.478Z,82.61
2023-02-09T16:23:20.241Z,83.14
2023-02-09T16:28:16.515Z,84.21
2023-02-09T16:33:07.391Z,84.92
2023-02-09T16:38:01.532Z,85.04
2023-02-09T16:42:55.707Z,85.34
2023-02-09T16:47:51.163Z,85.80
2023-02-09T16:52:46.272Z,86.06
2023-02-09T16:57:42.179Z,86.87
2023-02-09T17:02:47.102Z,87.66
2023-02-09T17:07:53.974Z,88.11
2023-02-09T17:12:49.089Z,88.37
2023-02-09T17:17:40.254Z,89.87
2023-02-09T17:22:31.842Z,90.07
2023-02-09T17:27:23.450Z,90.89
2023-02-09T17:32:21.080Z,91.29
2023-02-09T17:37:16.980Z,91.52
2023-02-09T17:42:08.347Z,91.76
2023-02-09T17:47:00.595Z,92.75
2023-02-09T17:51:57.014Z,92.93
2023-02-09T17:56:48.723Z,93.52
2023-02-09T18:01:45.491Z,94.55
2023-02-09T18:06:43.136Z,94.83
2023-02-09T18:12:05.776Z,95.88
2023-02-09T18:16:58.325Z,96.46
2023-02-09T18:21:53.452Z,96.48
2023-02-09T18:26:43.410Z,96.33
2023-02-09T18:31:37.856Z,96.95
2023-02-09T18:36:29.076Z,96.86
2023-02-09T18:41:29.887Z,96.78
2023-02-09T18:46:22.206Z,96.58
2023-02-09T18:51:18.408Z,97.19
2023-02-09T18:56:18.688Z,97.29
2023-02-09T19:01:14.481Z,97.72
2023-02-09T19:06:10.593Z,97.86
2023-02-09T19:11:05.759Z,98.34
2023-02-09T19:15:59.119Z,98.80
2023-02-09T19:21:00.120Z,98.76
2023-02-09T19:25:53.429Z,99.08
2023-02-09T19:30:50.609Z,99.21
2023-02-09T19:35:44.073Z,99.33
2023-02-09T19:40:41.902Z,100.00
2023-02-09T19:45:36.665Z,100.00
2023-02-09T19:50:29.186Z,100.00
2023-02-09T19:55:20.732Z,100.00
2023-02-09T20:00:18.369Z,100.00
2023-02-09T20:05:10.455Z,100.00
2023-02-09T20:10:09.791Z,100.00
2023-02-09T20:15:02.543Z,100.00
2023-02-09T20:19:52.768Z,100.00
2023-02-09T20:24:49.054Z,100.00
2023-02-09T20:29:47.608Z,100.00
2023-02-09T20:34:42.563Z,100.00
2023-02-09T20:39:32.685Z,100.00
2023-02-09T20:44:34.884Z,100.00
2023-02-09T20:49:31.331Z,100.00
2023-02-09T20:54:27.231Z,100.00
2023-02-09T20:59:36.531Z,100.00
2023-02-09T21:04:35.155Z,100.00
2023-02-09T21:09:31.450Z,100.00
2023-02-09T21:14:27.939Z,100.00
2023-02-09T21:19:27.344Z,100.00
2023-02-09T21:24:24.445Z,100.00
2023-02-09T21:29:20.159Z,100.00
2023-02-09T21:34:13.758Z,100.00
2023-02-09T21:39:05.679Z,100.00
2023-02-09T21:44:04.855Z,100.00
2023-02-09T21:48:56.084Z,100.00
2023-02-09T21:53:50.295Z,100.00
2023-02-09T21:58:41.693Z,100.00
2023-02-09T22:03:38.092Z,100.00
2023-02-09T22:08:31.219Z,100.00
2023-02-09T22:13:26.156Z,100.00
2023-02-09T22:18:18.421Z,100.00
2023-02-09T22:23:13.375Z,100.00
2023-02-09T22:28:05.204Z,100.00
2023-02-09T22:32:58.949Z,100.00
2023-02-09T22:37:52.507Z,100.00
2023-02-09T22:42:46.226Z,100.00
2023-02-09T22:47:40.166Z,100.00
2023-02-09T22:52:39.750Z,100.00
2023-02-09T22:57:33.194Z,100.00
2023-02-09T23:02:27.656Z,100.00
2023-02-09T23:07:19.140Z,100.00
2023-02-09T23:12:16.534Z,100.00
2023-02-09T23:17:07.890Z,100.00
2023-02-09T23:22:01.589Z,99.92
2023-02-09T23:26:53.277Z,99.76
2023-02-09T23:31:44.913Z,100.00
2023-02-09T23:36:36.673Z,100.00
2023-02-09T23:41:30.034Z,100.00
2023-02-09T23:46:23.494Z,100.00
2023-02-09T23:51:25.482Z,100.00
2023-02-09T23:56:20.310Z,100.00
